createdAt,value
2022-12-22T00:01:22.192Z,1.00
2022-12-22T00:04:08.859Z,1.00
2022-12-22T00:06:55.327Z,1.10
2022-12-22T00:09:41.344Z,1.00
2022-12-22T00:12:30.358Z,1.00
2022-12-22T00:15:17.504Z,1.00
2022-12-22T00:18:03.649Z,1.10
2022-12-22T00:20:49.696Z,1.00
2022-12-22T00:23:35.719Z,1.00
2022-12-22T00:26:21.807Z,1.00
2022-12-22T00:29:08.343Z,1.00
2022-12-22T00:31:54.533Z,1.00
2022-12-22T00:34:41.589Z,0.90
2022-12-22T00:37:31.863Z,1.00
2022-12-22T00:40:20.040Z,1.00
2022-12-22T00:43:06.124Z,1.10
2022-12-22T00:45:52.443Z,1.10
2022-12-22T00:48:44.213Z,1.10
2022-12-22T00:51:31.443Z,1.10
2022-12-22T00:54:17.554Z,1.10
2022-12-22T00:57:03.794Z,1.10
2022-12-22T00:59:50.291Z,1.10
2022-12-22T01:02:36.995Z,1.10
2022-12-22T01:05:23.186Z,1.10
2022-12-22T01:08:09.464Z,1.10
2022-12-22T01:10:55.722Z,1.10
2022-12-22T01:13:42.496Z,1.10
2022-12-22T01:16:35.288Z,1.10
2022-12-22T01:19:22.086Z,1.20
2022-12-22T01:22:08.231Z,1.00
2022-12-22T01:24:54.696Z,1.00
2022-12-22T01:27:40.693Z,1.00
2022-12-22T01:30:28.042Z,1.10
2022-12-22T01:33:14.127Z,1.00
2022-12-22T01:36:00.191Z,0.90
2022-12-22T01:38:46.452Z,0.90
2022-12-22T01:41:36.952Z,1.10
2022-12-22T01:44:34.664Z,1.10
2022-12-22T01:47:48.606Z,1.20
2022-12-22T01:50:42.567Z,1.20
2022-12-22T01:53:34.281Z,1.20
2022-12-22T01:56:21.283Z,1.20
2022-12-22T01:59:12.626Z,1.20
2022-12-22T02:02:00.571Z,1.20
2022-12-22T02:04:58.572Z,1.20
2022-12-22T02:08:06.744Z,1.20
2022-12-22T02:11:41.177Z,1.20
2022-12-22T02:14:39.258Z,1.20
2022-12-22T02:17:40.086Z,1.20
2022-12-22T02:20:54.272Z,1.20
2022-12-22T02:23:46.332Z,1.30
2022-12-22T02:26:55.197Z,1.00
2022-12-22T02:29:47.938Z,0.90
2022-12-22T02:32:34.299Z,1.10
2022-12-22T02:35:20.348Z,1.20
2022-12-22T02:38:19.952Z,1.30
2022-12-22T02:41:24.999Z,1.30
2022-12-22T02:44:35.672Z,1.30
2022-12-22T02:47:30.832Z,1.30
2022-12-22T02:50:22.986Z,1.30
2022-12-22T02:53:10.547Z,1.30
2022-12-22T02:55:56.652Z,1.30
2022-12-22T02:58:44.121Z,1.30
2022-12-22T03:01:30.252Z,1.30
2022-12-22T03:04:16.533Z,1.30
2022-12-22T03:07:02.921Z,1.40
2022-12-22T03:09:49.199Z,1.30
2022-12-22T03:12:35.202Z,1.30
2022-12-22T03:15:21.279Z,1.30
2022-12-22T03:18:07.327Z,1.30
2022-12-22T03:20:53.713Z,1.30
2022-12-22T03:23:40.152Z,1.30
2022-12-22T03:26:07.694Z,1.20
2022-12-22T03:28:35.309Z,1.30
2022-12-22T03:31:06.079Z,1.30
2022-12-22T03:33:34.028Z,1.20
2022-12-22T03:36:02.153Z,1.30
2022-12-22T03:38:29.744Z,1.20
2022-12-22T03:40:57.584Z,1.10
2022-12-22T03:43:43.985Z,1.20
2022-12-22T03:46:32.200Z,1.30
2022-12-22T03:49:10.302Z,1.20
2022-12-22T03:51:49.742Z,1.20
2022-12-22T03:54:20.521Z,1.10
2022-12-22T03:56:48.262Z,1.20
2022-12-22T03:59:16.647Z,1.10
2022-12-22T04:01:46.947Z,1.00
2022-12-22T04:04:16.069Z,1.00
2022-12-22T04:06:43.741Z,1.00
2022-12-22T04:09:11.471Z,1.10
2022-12-22T04:11:57.612Z,1.10
2022-12-22T04:14:31.353Z,1.10
2022-12-22T04:17:01.408Z,1.10
2022-12-22T04:19:29.131Z,1.10
2022-12-22T04:21:56.660Z,1.10
2022-12-22T04:24:24.419Z,1.10
2022-12-22T04:26:52.487Z,1.00
2022-12-22T04:29:20.226Z,1.00
2022-12-22T04:31:48.069Z,1.00
2022-12-22T04:34:15.722Z,1.10
2022-12-22T04:36:43.346Z,1.10
2022-12-22T04:39:10.893Z,1.10
2022-12-22T04:41:38.428Z,1.00
2022-12-22T04:44:06.198Z,1.10
2022-12-22T04:46:33.814Z,1.00
2022-12-22T04:49:01.395Z,1.00
2022-12-22T04:51:29.090Z,1.00
2022-12-22T04:53:56.714Z,1.00
2022-12-22T04:56:24.319Z,1.00
2022-12-22T04:58:51.835Z,1.00
2022-12-22T05:01:19.955Z,1.00
2022-12-22T05:03:48.071Z,1.00
2022-12-22T05:06:15.700Z,1.00
2022-12-22T05:08:43.344Z,1.00
2022-12-22T05:11:11.308Z,1.10
2022-12-22T05:13:38.905Z,1.00
2022-12-22T05:16:12.549Z,1.00
2022-12-22T05:18:41.424Z,1.00
2022-12-22T05:21:13.881Z,1.10
2022-12-22T05:23:42.002Z,1.10
2022-12-22T05:26:13.451Z,1.00
2022-12-22T05:28:42.385Z,1.10
2022-12-22T05:31:21.191Z,1.10
2022-12-22T05:33:49.970Z,1.10
2022-12-22T05:36:17.801Z,1.00
2022-12-22T05:38:45.623Z,1.00
2022-12-22T05:41:13.965Z,1.10
2022-12-22T05:43:41.579Z,0.80
2022-12-22T05:46:11.165Z,1.00
2022-12-22T05:48:39.964Z,1.00
2022-12-22T05:51:09.463Z,1.10
2022-12-22T05:53:37.976Z,1.00
2022-12-22T05:56:06.400Z,1.00
2022-12-22T05:58:35.226Z,1.10
2022-12-22T06:01:02.925Z,1.10
2022-12-22T06:03:31.132Z,1.10
2022-12-22T06:05:59.561Z,1.00
2022-12-22T06:08:27.961Z,1.10
2022-12-22T06:10:59.444Z,1.10
2022-12-22T06:13:27.290Z,1.20
2022-12-22T06:15:54.874Z,1.20
2022-12-22T06:18:22.540Z,1.10
2022-12-22T06:20:53.772Z,1.20
2022-12-22T06:23:22.094Z,1.10
2022-12-22T06:26:01.237Z,1.10
2022-12-22T06:28:29.072Z,1.10
2022-12-22T06:30:56.791Z,1.10
2022-12-22T06:33:24.515Z,1.10
2022-12-22T06:35:58.126Z,1.10
2022-12-22T06:38:28.013Z,1.10
2022-12-22T06:40:55.646Z,1.10
2022-12-22T06:43:23.182Z,1.10
2022-12-22T06:45:50.820Z,1.10
2022-12-22T06:48:18.535Z,1.20
2022-12-22T06:50:47.970Z,1.20
2022-12-22T06:53:15.964Z,1.30
2022-12-22T06:55:43.533Z,1.20
2022-12-22T06:58:11.160Z,1.20
2022-12-22T07:00:38.787Z,1.30
2022-12-22T07:03:06.740Z,1.20
2022-12-22T07:05:34.747Z,1.10
2022-12-22T07:08:08.076Z,1.20
2022-12-22T07:10:55.510Z,1.20
2022-12-22T07:13:24.329Z,1.30
2022-12-22T07:16:00.229Z,1.20
2022-12-22T07:18:31.078Z,1.30
2022-12-22T07:21:01.400Z,1.30
2022-12-22T07:23:29.334Z,1.40
2022-12-22T07:25:57.561Z,1.30
2022-12-22T07:28:25.422Z,1.30
2022-12-22T07:30:54.607Z,1.30
2022-12-22T07:33:23.009Z,1.30
2022-12-22T07:36:20.880Z,1.30
2022-12-22T07:38:50.852Z,1.40
2022-12-22T07:41:38.845Z,1.40
2022-12-22T07:44:08.238Z,1.40
2022-12-22T07:46:38.255Z,1.50
2022-12-22T07:49:25.618Z,1.50
2022-12-22T07:51:55.693Z,1.30
2022-12-22T07:54:23.294Z,1.30
2022-12-22T07:56:50.926Z,1.50
2022-12-22T07:59:18.772Z,1.60
2022-12-22T08:01:47.579Z,1.60
2022-12-22T08:04:15.651Z,1.70
2022-12-22T08:06:43.429Z,1.80
2022-12-22T08:09:15.345Z,1.80
2022-12-22T08:11:43.344Z,1.80
2022-12-22T08:14:10.924Z,1.80
2022-12-22T08:16:38.552Z,1.80
2022-12-22T08:19:06.249Z,1.80
2022-12-22T08:21:33.752Z,1.70
2022-12-22T08:24:01.319Z,1.90
2022-12-22T08:26:36.983Z,1.70
2022-12-22T08:29:16.931Z,1.80
2022-12-22T08:31:44.740Z,1.80
2022-12-22T08:34:15.310Z,1.90
2022-12-22T08:36:50.342Z,1.90
2022-12-22T08:39:20.863Z,1.90
2022-12-22T08:41:51.466Z,1.90
2022-12-22T08:44:22.305Z,1.80
2022-12-22T08:46:51.157Z,1.90
2022-12-22T08:49:19.560Z,1.90
2022-12-22T08:51:48.095Z,2.00
2022-12-22T08:54:16.071Z,2.00
2022-12-22T08:56:44.553Z,2.00
2022-12-22T08:59:12.995Z,2.10
2022-12-22T09:01:44.521Z,2.10
2022-12-22T09:04:14.096Z,2.30
2022-12-22T09:06:41.713Z,2.30
2022-12-22T09:09:12.768Z,2.30
2022-12-22T09:11:41.052Z,2.30
2022-12-22T09:14:10.023Z,2.20
2022-12-22T09:16:38.506Z,2.30
2022-12-22T09:19:06.962Z,2.20
2022-12-22T09:21:35.794Z,2.10
2022-12-22T09:24:04.949Z,2.10
2022-12-22T09:26:32.702Z,2.20
2022-12-22T09:29:00.240Z,2.20
2022-12-22T09:31:29.238Z,2.20
2022-12-22T09:33:57.607Z,2.10
2022-12-22T09:36:29.550Z,2.20
2022-12-22T09:38:57.300Z,2.10
2022-12-22T09:41:32.225Z,2.20
2022-12-22T09:44:14.164Z,2.20
2022-12-22T09:46:42.445Z,2.30
2022-12-22T09:49:15.686Z,2.20
2022-12-22T09:52:39.051Z,2.40
2022-12-22T09:55:16.664Z,2.30
2022-12-22T09:57:45.016Z,2.30
2022-12-22T10:00:15.704Z,2.30
2022-12-22T10:02:55.446Z,2.40
2022-12-22T10:05:31.297Z,2.50
2022-12-22T10:08:09.457Z,2.60
2022-12-22T10:10:37.476Z,2.80
2022-12-22T10:13:06.590Z,2.80
2022-12-22T10:15:39.996Z,2.90
2022-12-22T10:18:16.617Z,3.00
2022-12-22T10:21:13.957Z,3.00
2022-12-22T10:23:45.801Z,3.00
2022-12-22T10:26:27.857Z,3.10
2022-12-22T10:29:00.579Z,3.10
2022-12-22T10:31:32.562Z,3.20
2022-12-22T10:34:17.568Z,3.20
2022-12-22T10:36:49.901Z,3.30
2022-12-22T10:39:23.604Z,3.20
2022-12-22T10:41:55.283Z,3.30
2022-12-22T10:44:27.256Z,3.30
2022-12-22T10:46:57.879Z,3.30
2022-12-22T10:49:28.166Z,3.50
2022-12-22T10:52:15.322Z,3.40
2022-12-22T10:54:45.053Z,3.40
2022-12-22T10:57:15.535Z,3.40
2022-12-22T10:59:55.051Z,3.50
2022-12-22T11:02:23.019Z,3.40
2022-12-22T11:04:52.208Z,3.60
2022-12-22T11:07:20.738Z,3.70
2022-12-22T11:09:48.758Z,3.70
2022-12-22T11:12:38.165Z,3.80
2022-12-22T11:15:37.255Z,3.70
2022-12-22T11:18:20.772Z,3.80
2022-12-22T11:21:01.432Z,3.50
2022-12-22T11:23:33.790Z,3.50
2022-12-22T11:26:11.660Z,3.80
2022-12-22T11:28:42.977Z,3.70
2022-12-22T11:31:22.841Z,3.70
2022-12-22T11:34:02.137Z,3.50
2022-12-22T11:36:57.921Z,3.40
2022-12-22T11:39:57.520Z,3.40
2022-12-22T11:43:11.107Z,3.30
2022-12-22T11:45:55.507Z,3.30
2022-12-22T11:48:29.222Z,3.20
2022-12-22T11:51:09.708Z,3.30
2022-12-22T11:54:12.432Z,3.20
2022-12-22T11:56:47.049Z,3.40
2022-12-22T11:59:42.207Z,3.30
2022-12-22T12:02:48.092Z,3.30
2022-12-22T12:05:44.057Z,3.40
2022-12-22T12:08:23.110Z,3.40
2022-12-22T12:11:11.501Z,3.40
2022-12-22T12:13:54.263Z,3.40
2022-12-22T12:16:34.060Z,3.40
2022-12-22T12:19:40.708Z,3.40
2022-12-22T12:22:39.346Z,3.30
2022-12-22T12:25:30.339Z,3.30
2022-12-22T12:28:21.405Z,3.40
2022-12-22T12:31:01.682Z,3.50
2022-12-22T12:33:54.577Z,3.50
2022-12-22T12:36:31.366Z,3.30
2022-12-22T12:39:19.013Z,3.20
2022-12-22T12:42:17.022Z,3.10
2022-12-22T12:44:46.041Z,3.10
2022-12-22T12:47:26.650Z,3.00
2022-12-22T12:49:59.868Z,3.10
2022-12-22T12:52:48.867Z,3.00
2022-12-22T12:55:33.608Z,3.00
2022-12-22T12:58:04.314Z,3.00
2022-12-22T13:00:34.932Z,3.00
2022-12-22T13:03:04.571Z,3.10
2022-12-22T13:05:51.774Z,3.10
2022-12-22T13:08:20.787Z,3.10
2022-12-22T13:11:08.628Z,2.90
2022-12-22T13:13:36.215Z,3.00
2022-12-22T13:16:04.342Z,2.90
2022-12-22T13:18:34.760Z,3.00
2022-12-22T13:21:50.997Z,2.90
2022-12-22T13:24:23.708Z,2.90
2022-12-22T13:26:45.584Z,2.90
2022-12-22T13:29:22.140Z,2.80
2022-12-22T13:32:14.413Z,2.80
2022-12-22T13:37:59.716Z,2.80
2022-12-22T13:40:44.212Z,2.80
2022-12-22T13:43:19.599Z,2.80
2022-12-22T13:45:50.762Z,2.80
2022-12-22T13:48:21.967Z,2.80
2022-12-22T13:51:21.402Z,2.80
2022-12-22T13:54:12.932Z,2.80
2022-12-22T13:56:52.222Z,2.70
2022-12-22T13:59:35.403Z,2.60
2022-12-22T14:02:09.218Z,2.60
2022-12-22T14:04:38.801Z,2.50
2022-12-22T14:07:20.447Z,2.50
2022-12-22T14:09:50.883Z,2.50
2022-12-22T14:12:20.561Z,2.40
2022-12-22T14:14:50.710Z,2.50
2022-12-22T14:17:30.957Z,2.50
2022-12-22T14:20:36.466Z,2.50
2022-12-22T14:23:24.745Z,2.50
2022-12-22T14:25:55.345Z,2.40
2022-12-22T14:28:24.360Z,2.50
2022-12-22T14:30:56.069Z,2.40
2022-12-22T14:33:31.985Z,2.40
2022-12-22T14:36:23.942Z,2.50
2022-12-22T14:38:55.557Z,2.50
2022-12-22T14:41:41.522Z,2.50
2022-12-22T14:44:16.573Z,2.50
2022-12-22T14:46:45.420Z,2.50
2022-12-22T14:49:19.354Z,2.50
2022-12-22T14:52:01.044Z,2.50
2022-12-22T14:54:29.404Z,2.40
2022-12-22T14:57:07.288Z,2.50
2022-12-22T14:59:39.145Z,2.50
2022-12-22T15:02:23.787Z,2.80
2022-12-22T15:05:09.326Z,2.60
2022-12-22T15:08:08.525Z,2.50
2022-12-22T15:10:44.417Z,2.50
2022-12-22T15:13:23.848Z,2.60
2022-12-22T15:15:52.657Z,2.70
2022-12-22T15:18:26.061Z,2.80
2022-12-22T15:20:55.883Z,2.50
2022-12-22T15:23:23.701Z,2.40
2022-12-22T15:25:51.358Z,2.30
2022-12-22T15:28:18.872Z,2.40
2022-12-22T15:30:46.625Z,2.30
2022-12-22T15:33:18.539Z,2.30
2022-12-22T15:35:46.791Z,2.30
2022-12-22T15:38:17.378Z,2.20
2022-12-22T15:40:45.308Z,2.30
2022-12-22T15:43:53.940Z,2.30
2022-12-22T15:46:04.291Z,2.30
2022-12-22T15:48:35.454Z,2.30
2022-12-22T15:51:04.319Z,2.30
2022-12-22T15:53:33.635Z,2.40
2022-12-22T15:56:01.737Z,2.30
2022-12-22T15:58:35.404Z,2.30
2022-12-22T16:01:03.184Z,2.30
2022-12-22T16:03:30.869Z,2.30
2022-12-22T16:05:58.816Z,2.20
2022-12-22T16:08:30.206Z,2.30
2022-12-22T16:10:58.444Z,2.30
2022-12-22T16:13:27.343Z,2.30
2022-12-22T16:15:57.892Z,2.30
2022-12-22T16:18:25.896Z,2.30
2022-12-22T16:20:55.430Z,2.30
2022-12-22T16:23:25.930Z,2.30
2022-12-22T16:26:01.306Z,2.30
2022-12-22T16:28:30.229Z,2.20
2022-12-22T16:30:58.651Z,2.20
2022-12-22T16:33:26.495Z,2.20
2022-12-22T16:35:54.204Z,2.20
2022-12-22T16:38:21.885Z,2.20
2022-12-22T16:40:51.975Z,2.20
2022-12-22T16:46:16.431Z,2.30
2022-12-22T16:48:59.533Z,2.20
2022-12-22T16:51:34.136Z,2.20
2022-12-22T16:54:02.463Z,2.20
2022-12-22T16:56:31.551Z,2.30
2022-12-22T16:59:00.996Z,2.30
2022-12-22T17:01:29.555Z,2.20
2022-12-22T17:04:00.934Z,2.30
2022-12-22T17:06:28.593Z,2.20
2022-12-22T17:08:56.457Z,2.10
2022-12-22T17:11:27.524Z,2.20
2022-12-22T17:14:15.056Z,2.20
2022-12-22T17:16:42.816Z,2.20
2022-12-22T17:19:11.754Z,2.20
2022-12-22T17:21:39.368Z,2.20
2022-12-22T17:24:07.307Z,2.20
2022-12-22T17:26:36.756Z,2.20
2022-12-22T17:29:04.819Z,2.30
2022-12-22T17:31:32.560Z,2.20
2022-12-22T17:34:00.227Z,2.20
2022-12-22T17:36:37.256Z,2.20
2022-12-22T17:39:05.324Z,2.30
2022-12-22T17:41:33.248Z,2.20
2022-12-22T17:44:00.936Z,2.20
2022-12-22T17:46:29.225Z,2.20
2022-12-22T17:48:56.996Z,2.20
2022-12-22T17:51:29.685Z,2.20
2022-12-22T17:53:58.909Z,2.10
2022-12-22T17:56:27.806Z,2.20
2022-12-22T17:58:55.543Z,2.00
2022-12-22T18:01:37.155Z,2.10
2022-12-22T18:04:05.207Z,2.10
2022-12-22T18:06:35.495Z,2.20
2022-12-22T18:09:07.502Z,2.10
2022-12-22T18:11:39.116Z,2.20
2022-12-22T18:14:13.089Z,2.20
2022-12-22T18:16:40.807Z,2.20
2022-12-22T18:19:08.527Z,2.20
2022-12-22T18:21:36.566Z,2.20
2022-12-22T18:24:04.860Z,2.10
2022-12-22T18:26:32.948Z,2.10
2022-12-22T18:29:01.916Z,2.20
2022-12-22T18:31:29.879Z,2.10
2022-12-22T18:33:58.196Z,2.10
2022-12-22T18:36:32.907Z,2.20
2022-12-22T18:39:02.410Z,2.20
2022-12-22T18:41:35.401Z,2.10
2022-12-22T18:44:03.139Z,2.10
2022-12-22T18:46:30.851Z,2.20
2022-12-22T18:49:03.647Z,2.10
2022-12-22T18:51:33.315Z,2.10
2022-12-22T18:54:01.054Z,2.10
2022-12-22T18:56:28.948Z,2.00
2022-12-22T18:58:56.634Z,2.10
2022-12-22T19:01:26.820Z,2.20
2022-12-22T19:03:57.394Z,2.20
2022-12-22T19:06:25.617Z,2.20
2022-12-22T19:08:53.293Z,2.10
2022-12-22T19:11:25.535Z,2.00
2022-12-22T19:13:55.482Z,2.00
2022-12-22T19:16:27.166Z,2.10
2022-12-22T19:18:57.204Z,2.10
2022-12-22T19:21:25.029Z,2.10
2022-12-22T19:23:52.870Z,2.10
2022-12-22T19:26:24.344Z,2.10
2022-12-22T19:28:56.806Z,2.00
2022-12-22T19:31:31.060Z,2.00
2022-12-22T19:34:03.026Z,2.10
2022-12-22T19:36:32.077Z,2.00
2022-12-22T19:39:04.693Z,1.90
2022-12-22T19:41:44.787Z,2.00
2022-12-22T19:44:23.438Z,2.00
2022-12-22T19:46:53.248Z,2.00
2022-12-22T19:49:24.825Z,2.00
2022-12-22T19:51:52.483Z,2.00
2022-12-22T19:54:20.596Z,2.00
2022-12-22T19:56:52.648Z,2.00
2022-12-22T19:59:40.112Z,2.00
2022-12-22T20:02:30.323Z,2.00
2022-12-22T20:05:00.145Z,2.00
2022-12-22T20:07:30.081Z,2.10
2022-12-22T20:09:58.042Z,2.10
2022-12-22T20:12:29.287Z,2.00
2022-12-22T20:14:58.273Z,1.90
2022-12-22T20:17:27.129Z,1.90
2022-12-22T20:19:54.928Z,1.90
2022-12-22T20:22:23.578Z,2.00
2022-12-22T20:24:51.903Z,1.90
2022-12-22T20:27:29.827Z,2.00
2022-12-22T20:29:58.190Z,2.00
2022-12-22T20:32:28.299Z,2.00
2022-12-22T20:34:56.703Z,1.90
2022-12-22T20:37:25.768Z,1.90
2022-12-22T20:39:53.794Z,1.70
2022-12-22T20:42:25.122Z,1.70
2022-12-22T20:45:03.967Z,1.80
2022-12-22T20:47:36.465Z,2.00
2022-12-22T20:50:28.568Z,2.00
2022-12-22T20:52:57.444Z,2.00
2022-12-22T20:55:28.027Z,2.00
2022-12-22T20:57:56.416Z,1.90
2022-12-22T21:00:26.998Z,2.00
2022-12-22T21:02:55.264Z,2.00
2022-12-22T21:05:23.206Z,2.00
2022-12-22T21:07:50.987Z,2.00
2022-12-22T21:10:22.194Z,2.00
2022-12-22T21:12:50.406Z,2.00
2022-12-22T21:15:20.568Z,2.00
2022-12-22T21:17:55.974Z,2.10
2022-12-22T21:20:29.136Z,2.00
2022-12-22T21:22:56.766Z,2.00
2022-12-22T21:25:24.869Z,2.10
2022-12-22T21:27:52.748Z,2.10
2022-12-22T21:30:26.465Z,2.10
2022-12-22T21:32:54.875Z,2.00
2022-12-22T21:35:26.340Z,1.90
2022-12-22T21:37:55.142Z,2.00
2022-12-22T21:40:28.286Z,2.00
2022-12-22T21:42:56.814Z,2.00
2022-12-22T21:45:31.871Z,2.10
2022-12-22T21:48:01.087Z,2.20
2022-12-22T21:50:31.437Z,2.20
2022-12-22T21:52:59.368Z,2.10
2022-12-22T21:55:30.651Z,2.10
2022-12-22T21:57:58.779Z,2.10
2022-12-22T22:00:28.562Z,2.00
2022-12-22T22:02:56.911Z,2.10
2022-12-22T22:05:45.307Z,2.10
2022-12-22T22:08:12.978Z,2.20
2022-12-22T22:10:43.253Z,2.10
2022-12-22T22:13:15.578Z,2.10
2022-12-22T22:15:44.072Z,2.10
2022-12-22T22:18:16.617Z,2.10
2022-12-22T22:20:44.485Z,2.00
2022-12-22T22:23:14.363Z,2.10
2022-12-22T22:25:42.113Z,2.00
2022-12-22T22:28:11.585Z,2.00
2022-12-22T22:30:41.601Z,2.10
2022-12-22T22:33:10.620Z,2.20
2022-12-22T22:35:39.938Z,2.10
2022-12-22T22:38:11.811Z,2.00
2022-12-22T22:40:42.189Z,1.90
2022-12-22T22:43:10.046Z,2.10
2022-12-22T22:45:38.818Z,2.10
2022-12-22T22:48:10.816Z,2.00
2022-12-22T22:50:41.052Z,2.10
2022-12-22T22:53:08.732Z,2.10
2022-12-22T22:55:36.246Z,2.10
2022-12-22T22:58:04.013Z,2.20
2022-12-22T23:00:31.870Z,2.10
2022-12-22T23:03:00.460Z,2.10
2022-12-22T23:05:28.402Z,2.10
2022-12-22T23:07:56.014Z,2.10
2022-12-22T23:10:23.644Z,2.10
2022-12-22T23:12:51.167Z,2.10
2022-12-22T23:15:19.019Z,2.10
2022-12-22T23:17:46.697Z,2.10
2022-12-22T23:20:14.373Z,2.10
2022-12-22T23:22:42.006Z,2.10
2022-12-22T23:25:09.719Z,2.00
2022-12-22T23:27:37.229Z,2.00
2022-12-22T23:30:05.221Z,2.10
2022-12-22T23:32:32.755Z,2.00
2022-12-22T23:35:00.429Z,2.00
2022-12-22T23:37:27.969Z,2.00
2022-12-22T23:39:56.165Z,2.00
2022-12-22T23:42:29.459Z,1.90
2022-12-22T23:44:57.056Z,2.00
2022-12-22T23:47:24.609Z,1.90
2022-12-22T23:49:52.190Z,2.00
2022-12-22T23:52:19.905Z,2.10
2022-12-22T23:54:47.405Z,2.10
2022-12-22T23:57:15.090Z,2.10
2022-12-22T23:59:42.685Z,2.20
